x

8454049 - Quonset Point, Ri (qptr1) Weather Station

1:18 - Fri 29th Jul 2016 All times are EDT. -4 hours from GMT.

  • Wind
    8mph, 9mph gusts
  • Sea Temp 76°f
  • Aire Temp 74°f
  • Sea Pressure 1011.7mb
  • 8454049 - Quonset Point, Ri
  • 8454049 - Quonset Point, Ri

More Historic Weather Station data

Upgrade to MSW Pro to gain access to the past 30 days of data for over 8000 Wavebouys and Weather Stations around the globe.

Join Pro

Comparision Forecast

View Surf forecast
   
vie 07/29 1:18 8 9 mph 1011.7mb 76f 74f
1:12 8 9 mph 1011.8mb 76f 75f
1:06 8 10 mph 1011.9mb 77f 75f
1:00 9 10 mph 1011.8mb 77f 75f
12:54 8 9 mph 1011.8mb 77f 75f
12:48 7 9 mph 1011.8mb 77f 75f
12:42 8
mph
1011.8mb 77f 75f
12:36 8
mph
1011.7mb 76f 75f
12:30 8 9 mph 1011.7mb 76f 75f
12:24 8 9 mph 1011.7mb 76f 75f
12:18 8
mph
1011.8mb 76f 75f
12:12 7 8 mph 1012mb 76f 75f
12:06 7 8 mph 1012.1mb 77f 75f
12:00 8 9 mph 1012.2mb 77f 75f
jue 07/28 11:54 8 9 mph 1012.2mb 77f 75f
11:48 7 8 mph 1012.3mb 77f 75f
11:42 8
mph
1012.2mb 77f 75f
11:36 6 7 mph 1012.2mb 77f 75f
11:30 6
mph
1012.2mb 77f 75f
11:24 5
mph
1012.2mb 77f 75f
11:18  -  mph 1012.3mb 77f -
11:12  -  mph 1012.3mb 77f -
11:06  -  mph 1012.4mb 77f -
11:00 3 6 mph - 77f -
10:54 6
mph
- 77f -
10:48 6 8 mph 1012.3mb 77f -
10:42 7 8 mph 1012.3mb 78f -
10:36 8 9 mph 1012.3mb 78f -
10:30 9 10 mph - - -
10:24 9
mph
- - -
10:18  -  mph - 78f 75f
10:12  -  mph - 78f 75f
10:06  -  mph - 78f 75f
10:00  -  mph 1012.1mb - -
9:54  -  mph 1012.2mb - -
9:48 10
mph
1012.2mb 78f -
9:42 9 10 mph 1012.2mb 77f -
9:36 8 9 mph 1012.1mb 77f -
9:30 8 9 mph 1012mb - -
9:24 9 10 mph 1012mb - -
9:18 8 10 mph - 77f -
9:12 9 10 mph - 77f -
9:06 8 9 mph - 76f -
9:00  -  mph - 76f 76f
8:54  -  mph - 76f 76f
8:48 8 9 mph 1011.9mb 76f -
8:42 8 9 mph 1012mb 76f -
8:36 8 9 mph 1011.9mb 76f -
8:30 8 9 mph 1012mb 76f -
8:24 8 9 mph 1012mb 76f -
8:18 8 10 mph 1012mb 76f -
8:12 9 10 mph 1011.9mb 76f -
8:06 9 11 mph 1012mb 76f -
8:00  -  mph - 76f 77f
7:54  -  mph - 75f 77f
7:48 10 13 mph 1011.9mb - -
7:42 13 15 mph 1012mb - -
7:36 15 16 mph 1012.1mb - -
7:30 13 14 mph - - -
7:24 13 16 mph - - -
7:18 15 16 mph - 75f -
7:12 11 13 mph - 74f -
7:06 10 13 mph - 74f -
7:00  -  mph - 74f -
6:54  -  mph - 74f -
6:48  -  mph - 74f -
6:42  -  mph - 74f -
6:36  -  mph - 74f -
6:30 15 16 mph 1011.8mb 74f -
6:24 13 14 mph 1011.7mb 74f -
6:18 14 16 mph 1011.6mb 74f 79f
6:12 15 17 mph 1011.5mb 74f 80f
6:06 16 18 mph 1011.6mb 74f 80f
6:00 13 16 mph 1011.5mb 74f -
5:54 15 17 mph 1011.6mb 74f -
5:48 15 16 mph - 74f 80f
5:42 13 17 mph - 74f 80f
5:36 13 15 mph - 74f 78f
5:30 14 16 mph 1011.4mb 74f 76f
5:24 15 18 mph 1011.4mb 74f 76f
5:18 15 18 mph 1011.4mb 74f 76f
5:12 15 17 mph 1011.3mb 74f 76f
5:06 15 17 mph 1011.3mb 75f 76f
5:00 15 17 mph 1011.4mb 75f 76f
4:54 15 18 mph 1011.4mb 76f 76f
4:48 14 17 mph 1011.4mb 76f 75f
4:42 15 18 mph 1011.3mb 76f 75f
4:36 15 18 mph 1011.2mb 76f 74f
4:30 16 18 mph 1011.4mb 76f 74f
4:24 15 17 mph 1011.4mb 76f 75f
4:18 14 16 mph 1011.4mb 76f 75f
4:12 14 16 mph 1011.4mb 76f 74f
4:06 15 17 mph 1011.4mb 76f 74f
4:00 16 17 mph 1011.4mb 76f 74f
3:54 15 18 mph 1011.4mb 76f 74f
3:48 16 18 mph 1011.4mb 76f 74f
3:42 16 18 mph 1011.4mb 76f 74f
3:36 18 21 mph 1011.4mb 76f 74f
3:30 18 21 mph 1011.4mb 76f 74f
3:24 18 22 mph 1011.4mb 76f 74f
3:18 18 21 mph 1011.4mb 76f 74f
3:12 16 21 mph 1011.4mb 76f 75f
3:06 20 21 mph 1011.5mb 76f 75f
3:00 18 21 mph 1011.5mb 76f 75f
2:54 17 20 mph 1011.5mb 76f 75f
2:48 16 17 mph 1011.6mb 76f 75f
2:42 16 20 mph 1011.7mb 76f 75f
2:36 17 21 mph 1011.9mb 76f 75f
2:30 20 22 mph 1011.9mb 76f 75f
2:24 21 23 mph 1011.9mb 76f 75f
2:18 18 21 mph 1011.9mb 76f 75f
2:12 18 20 mph 1012mb 76f 76f
2:06 18 21 mph 1012mb 76f 76f
2:00 17 21 mph 1012mb 76f 76f
1:54 20 21 mph 1012.1mb 76f 76f
1:48 18 20 mph 1012.1mb 76f 76f
1:42 18 20 mph 1012.1mb 76f 76f
1:36 18 20 mph 1012.1mb 76f 76f
1:30 18 21 mph 1012.1mb 76f 76f
1:24 17 21 mph 1012.2mb 76f 75f
1:18 18 21 mph 1012.2mb 76f 76f
1:12 20 22 mph 1012.2mb 75f 76f
1:06 20 22 mph 1012.3mb 75f 76f
1:00 21 23 mph 1012.3mb 75f 76f
12:54 20 22 mph 1012.3mb 75f 76f
12:48 21 22 mph 1012.3mb 75f 76f
12:42 21 23 mph 1012.4mb 75f 75f
12:36 21 24 mph 1012.4mb 75f 76f
12:30 21 23 mph 1012.4mb 75f 76f
12:24 20 22 mph 1012.4mb 75f 77f
12:18 21 22 mph 1012.5mb 75f 77f
12:12 21 23 mph 1012.5mb 75f 77f
12:06 21 23 mph 1012.5mb 75f 77f
12:00 20 22 mph 1012.5mb 75f 77f
11:54 20 21 mph 1012.6mb 75f 77f
11:48 18 21 mph 1012.6mb 75f 77f
11:42 17 18 mph 1012.7mb 74f 78f
11:36 14 16 mph 1012.7mb 74f 78f
11:30 14 16 mph 1012.8mb 74f 78f
11:24 15 16 mph 1012.9mb 74f 78f
11:18 14 16 mph 1013mb 74f 78f
11:12 13 14 mph 1013mb 75f 78f
11:06 11 14 mph 1013mb 75f 78f
11:00 13 15 mph 1013mb 74f 77f
10:54 14 15 mph 1013mb 75f 77f
10:48 13 14 mph 1013.2mb 75f 76f
10:42 13 14 mph 1013.3mb 75f 76f
10:36 11 14 mph 1013.3mb 75f 76f
10:30 14 15 mph 1013.3mb 75f 76f
10:24 14 15 mph 1013.2mb 75f 76f
10:18 13 14 mph 1013.2mb 75f 76f
10:12 13 14 mph 1013.1mb 75f 76f
10:06 11 13 mph 1013.2mb 75f 76f
10:00 11 14 mph 1013.2mb 75f 75f
9:54 14 16 mph 1013.2mb 75f 75f
9:48 14 16 mph 1013.3mb 75f 75f
9:42 14 15 mph 1013.3mb 75f 75f
9:36 13
mph
1013.3mb 75f 75f
9:30 10 11 mph 1013.3mb 75f 75f
9:24 9 11 mph 1013.3mb 75f 75f
9:18 10 11 mph 1013.3mb 75f 75f
9:12 10 11 mph 1013.4mb 75f 74f
9:06 9 11 mph 1013.4mb 75f 74f
9:00 9
mph
1013.4mb 75f 74f
8:54 7 8 mph 1013.4mb 75f 74f
8:48 7 8 mph 1013.4mb 75f 74f
8:42 7 8 mph 1013.4mb 75f 74f
8:36 7 8 mph 1013.4mb 75f 74f
8:30 7 8 mph 1013.4mb 75f 74f
8:24 7 8 mph 1013.5mb 75f 74f
8:18 6 7 mph 1013.5mb 75f 74f
8:12 6 7 mph 1013.5mb 75f 74f
8:06 6 7 mph 1013.4mb 74f 73f
8:00 6 7 mph 1013.3mb 74f 73f
7:54 6
mph
1013.3mb 74f 73f
7:48 6 7 mph 1013.2mb 74f 73f
7:42 6 7 mph 1013.3mb 74f 73f
7:36 6 8 mph 1013.4mb 74f 73f
7:30 8 9 mph 1013.3mb 74f 73f
7:24 7 8 mph 1013.3mb 74f 73f
7:18 6 8 mph 1013.2mb 74f 73f
7:12 6 7 mph 1013.1mb 73f 74f
7:06 6 7 mph 1013.1mb 73f 74f
7:00 6 7 mph 1013.1mb 73f 73f
6:54 6 7 mph 1013.1mb 73f 73f
6:48 6 7 mph 1013.1mb 73f 73f
6:42 7 8 mph 1013.1mb 73f 72f
6:36 7 8 mph 1013.1mb 73f 72f
6:30 7 8 mph 1013.2mb 73f 73f
6:24 7
mph
1013.2mb 73f 72f
6:18 7 8 mph 1013.2mb 73f 72f
6:12 7 8 mph 1013.3mb 73f 72f
6:06 6 7 mph 1013.3mb 73f 72f
6:00 7
mph
1013.2mb 73f 72f
5:54 6 8 mph 1013.2mb 73f 72f
5:48 6 7 mph 1013.1mb 73f 72f
5:42 6 7 mph 1013mb 73f 71f
5:36 6 7 mph 1012.9mb 73f 71f
5:30 7 8 mph 1012.8mb 74f 71f
5:24 6 8 mph 1012.7mb 74f 71f
5:18 7 8 mph 1012.7mb 74f 71f
5:12 7 8 mph 1012.8mb 74f 71f
5:06 7 8 mph 1012.7mb 74f 72f
5:00 7 8 mph 1012.7mb 74f 72f
4:54 7
mph
1012.7mb 74f 72f
4:48 7
mph
1012.6mb 74f 72f
4:42 7
mph
1012.5mb 74f 72f
4:36 6
mph
1012.5mb 75f 72f
4:30 6 7 mph 1012.5mb 75f 72f
4:24 7
mph
1012.6mb 75f 72f
4:18 6 7 mph 1012.5mb 75f 72f
4:12 7 8 mph 1012.6mb 75f 73f
4:06 7 8 mph 1012.6mb 75f 73f
4:00 7
mph
1012.7mb 76f 73f
3:54 6 7 mph 1012.6mb 76f 73f
3:48 7 8 mph 1012.6mb 76f 73f
3:42 7
mph
1012.5mb 76f 73f
3:36 6
mph
1012.5mb 76f 73f
3:30 6
mph
1012.6mb 76f 73f
3:24 6
mph
1012.6mb 76f 73f
3:18 5 6 mph 1012.6mb 76f 72f
3:12 5 6 mph 1012.7mb 76f 72f
3:06 6
mph
1012.6mb 76f 73f
3:00 6 7 mph 1012.7mb 76f 73f
2:54 5 6 mph 1012.6mb 76f 73f
2:48 5 6 mph 1012.6mb 76f -
2:42 6 7 mph 1012.6mb 76f -
2:36 6 7 mph 1012.6mb 76f -
2:30 5 6 mph 1012.5mb 76f 73f
2:24 5 6 mph 1012.6mb 76f 73f
2:18 5 6 mph 1012.6mb 76f 73f
2:12 3 5 mph 1012.7mb 76f 73f
2:06 5 6 mph 1012.8mb 76f 73f
2:00 5 6 mph 1012.8mb 76f 73f
1:54 5
mph
1012.8mb 76f 73f
1:48 3 5 mph 1012.7mb 76f -
1:42 5 6 mph 1012.7mb 76f -
1:36 3 5 mph 1012.6mb 76f -
1:30 3 5 mph 1012.7mb 76f 74f
1:24 3 5 mph 1012.7mb 76f 74f
1:18 5 6 mph 1012.7mb 76f 74f
1:12 5 6 mph 1012.7mb 76f 74f
1:06 5 7 mph 1012.8mb 76f 74f
1:00 6 8 mph 1012.7mb 77f 74f
12:54 7 9 mph 1012.7mb 77f 74f
12:48 8 10 mph 1012.6mb 77f 74f
12:42 9 10 mph 1012.6mb 77f 74f
12:36 7 9 mph 1012.6mb 77f 74f
12:30 8
mph
1012.7mb 77f 74f
12:24 5 6 mph 1012.6mb 77f 74f
12:18 5 6 mph 1012.7mb 77f 74f
12:12 5 6 mph 1012.7mb 77f 74f
12:06 6 7 mph 1012.8mb 77f 75f
12:00 6 8 mph 1012.7mb 77f 75f
mié 07/27 11:54 6 9 mph 1012.7mb 77f 75f
11:48 8 11 mph 1012.6mb 77f 75f
11:42 10 13 mph 1012.6mb 77f 75f
11:36 13 14 mph 1012.7mb 77f 75f
11:30 11 16 mph 1012.7mb 77f 75f
11:24 11 14 mph 1012.7mb 77f 75f
11:18 11 14 mph - 77f -
11:12 11 14 mph - 77f -
11:06 13 17 mph - 77f -
11:00 14 16 mph 1012.7mb 77f -
10:54 14 17 mph 1012.7mb 77f -
10:48 14 18 mph - - -
10:42 14 18 mph - - -
10:36 16 18 mph - - -
10:30 15 17 mph - - -
10:24 15 17 mph - - -
10:18 14 17 mph - 78f -
10:12 15 17 mph - 78f -
10:06 14 18 mph - 78f -
10:00  -  mph - 78f -
9:54  -  mph - 78f -
9:48 14 16 mph - - -
9:42 11 14 mph - - -
9:36 9 11 mph - - -
9:30  -  mph 1012.6mb - -
9:24  -  mph 1012.5mb - -
9:18 8 10 mph - - -
9:12 9 10 mph - - -
9:06 9
mph
- - -
9:00  -  mph - 78f -
8:54  -  mph - 78f -
8:48 9 13 mph 1012.3mb - -
8:42 10 13 mph 1012.2mb - -
8:36 11 14 mph 1012.2mb - -
8:30  -  mph 1012.1mb 78f -
8:24  -  mph 1012.1mb 78f -
8:18  -  mph - 78f 78f
8:12  -  mph - 78f 79f
8:06  -  mph - 78f 78f
8:00  -  mph - 77f 78f
7:54  -  mph - 77f 79f
7:48  -  mph 1011.9mb - -
7:42  -  mph 1012mb - -
7:36  -  mph 1012mb - -
7:30 11 14 mph - 77f -
7:24 11 14 mph - 77f -
7:18  -  mph - 77f 80f
7:12  -  mph - 77f 80f
7:06  -  mph - 77f 80f
7:00  -  mph - 77f 80f
6:54  -  mph - 77f 81f
6:48  -  mph - 77f 81f
6:42  -  mph - 76f 80f
6:36  -  mph - 76f 81f
6:30 16 18 mph - - -
6:24 16 21 mph - - -
6:18 16 17 mph 1011.9mb 76f 81f
6:12 16 20 mph 1011.9mb 76f 81f
6:06 16 18 mph 1011.8mb 75f 81f
6:00  -  mph - 74f -
5:54  -  mph - 74f -
5:48 15 17 mph - 75f 81f
5:42 17 21 mph - 75f 81f
5:36 17 21 mph - 75f 82f
5:30 15 20 mph 1012mb 75f 81f
5:24 16 21 mph 1012.1mb 75f 81f
5:18 15 18 mph 1012.1mb 75f 81f
5:12 15 20 mph 1012.1mb 75f 81f
5:06 17 21 mph 1012.1mb 75f 81f
5:00 16 20 mph 1012.1mb 75f 81f
4:54 17 21 mph 1012.2mb 74f 82f
4:48 16 20 mph 1012.3mb 74f 81f
4:42 17 21 mph 1012.2mb 74f 82f
4:36 16 21 mph 1012.3mb 74f 82f
4:30 16 18 mph 1012.2mb 74f 82f
4:24 18
mph
1012.3mb 74f 82f
4:18 17 20 mph 1012.3mb 74f 82f
4:12 15 20 mph 1012.3mb 74f 82f
4:06 15 17 mph 1012.4mb 74f 82f
4:00 14 16 mph 1012.3mb 74f 81f
3:54 14 20 mph 1012.4mb 74f 78f
3:48 17 18 mph 1012.4mb 74f 77f
3:42 14 17 mph 1012.5mb 74f 77f
3:36 15 17 mph 1012.6mb 74f 78f
3:30 16 17 mph 1012.5mb 75f 78f
3:24 15 16 mph 1012.5mb 76f 77f
3:18 16 18 mph 1012.6mb 76f 78f
3:12 16 20 mph 1012.7mb 76f 78f
3:06 16 20 mph 1012.7mb 77f 78f
3:00 16 20 mph 1012.8mb 77f 78f
2:54 16 18 mph 1012.9mb 77f 78f
2:48 16 17 mph 1012.9mb 77f 78f
2:42 15 17 mph 1012.9mb 77f 79f
2:36 14 18 mph 1012.9mb 77f 78f
2:30 16 21 mph 1013.1mb 77f 78f
2:24 16 20 mph 1013.1mb 77f 78f
2:18 16 18 mph 1013.1mb 77f 78f
2:12 17 20 mph 1013.1mb 77f 78f
2:06 16 20 mph 1013.1mb 77f 78f
2:00 17 18 mph 1013.2mb 77f 78f
1:54 17 20 mph 1013.2mb 77f 78f
1:48 16 18 mph 1013.2mb 77f 78f
1:42 16 17 mph 1013.3mb 77f 78f
1:36 14 16 mph 1013.3mb 77f 78f
1:30 15 18 mph 1013.4mb 77f 78f
1:24 17 18 mph 1013.4mb 77f 78f
1:18 18 20 mph 1013.4mb 77f 78f
1:12 16 17 mph 1013.4mb 77f 77f
1:06 11 14 mph 1013.4mb 77f 78f
1:00 11 14 mph 1013.4mb 77f 79f
12:54 13 14 mph 1013.4mb 77f 79f
12:48 14 16 mph 1013.5mb 77f 78f
12:42 15 17 mph 1013.4mb 77f 78f
12:36 15 16 mph 1013.4mb 77f 77f
12:30 15 16 mph 1013.5mb 77f 78f
12:24 15 16 mph 1013.4mb 76f 78f
12:18 11 14 mph 1013.5mb 76f 78f
12:12 9 14 mph 1013.5mb 76f 79f
12:06 6
mph
1013.5mb 76f 80f
12:00 6 7 mph 1013.4mb 76f 80f
11:54 6 7 mph 1013.4mb 76f 80f
11:48 7
mph
1013.4mb 76f 80f
11:42 6 7 mph 1013.5mb 76f 80f
11:36 6
mph
1013.5mb 76f 80f
11:30 6
mph
1013.6mb 76f 79f
11:24 5 6 mph 1013.6mb 76f 79f
11:18 6
mph
1013.6mb 76f 79f
11:12 6
mph
1013.7mb 76f 79f
11:06 5
mph
1013.8mb 76f 79f
11:00 5
mph
1013.8mb 76f 79f
10:54 5 6 mph 1013.7mb 76f 79f
10:48 5
mph
1013.8mb 76f 78f
10:42 5
mph
1013.8mb 76f 78f
10:36 5
mph
1013.8mb 76f 78f
10:30 3 5 mph 1013.9mb 76f 78f
10:24 3
mph
1013.9mb 76f 79f
10:18 2 3 mph 1013.9mb 76f 79f
10:12 2 3 mph 1013.8mb 75f 78f
10:06 3
mph
1013.9mb 75f 78f
10:00 3
mph
1013.9mb 75f 78f
9:54 2
mph
1013.9mb 75f 78f
9:48 2
mph
1014mb 75f 78f
9:42 2
mph
1013.9mb 75f 78f
9:36 1 3 mph 1014mb 75f 78f
9:30 2 3 mph 1014mb 75f 77f
9:24 2 5 mph 1013.9mb 75f 77f
9:18 3
mph
1013.9mb 75f 77f
9:12  -  2 mph 1013.9mb 75f 78f
9:06 1 3 mph 1014mb 75f 77f
9:00 3
mph
1013.9mb 75f 76f
8:54 2 3 mph 1014mb 75f 76f
8:48 2 3 mph 1013.9mb 75f 76f
8:42 2
mph
1013.9mb 75f 76f
8:36 2
mph
1014mb 75f 76f
8:30 1 2 mph 1014.1mb 74f 77f
8:24 2 3 mph 1014.1mb 74f 76f
8:18 3
mph
1013.9mb 74f 75f
8:12 3
mph
1013.9mb 74f 75f
8:06 3
mph
1013.9mb 74f 76f
8:00 2 3 mph 1013.9mb 74f 77f
7:54 3
mph
1013.9mb 74f 76f
7:48 2 3 mph 1013.8mb 74f 76f
7:42  -  1 mph 1013.8mb 74f 79f
7:36  -  3 mph 1013.8mb 74f 77f
7:30 2
mph
1013.8mb 74f 76f
7:24 2 5 mph 1013.9mb 74f 76f
7:18 3 5 mph 1013.8mb 74f 75f
7:12 3
mph
1013.8mb 74f 75f
7:06 2 3 mph 1013.8mb 74f 74f
7:00 3 5 mph 1013.8mb 74f 74f
6:54 3 5 mph 1013.7mb 74f 74f
6:48 3 5 mph 1013.6mb 73f 74f
6:42 5 6 mph 1013.6mb 73f 74f
6:36 6
mph
1013.6mb 74f 74f
6:30 5
mph
1013.6mb 74f 74f
6:24 2 3 mph 1013.6mb 74f 74f
6:18 3
mph
1013.7mb 74f 74f
6:12 2 3 mph 1013.6mb 74f 74f
6:06 2 3 mph 1013.6mb 74f 74f
6:00 2 3 mph 1013.5mb 74f 74f
5:54 2 3 mph 1013.5mb 74f 74f
5:48 2 3 mph 1013.4mb 74f 74f
5:42 2 3 mph 1013.4mb 74f 74f
5:36 2 3 mph 1013.4mb 74f 74f
5:30 2
mph
1013.4mb 74f 73f
5:24  -  mph 1013.4mb 74f 73f
5:18  -  1 mph 1013.3mb 74f 73f
5:12 1
mph
1013.3mb 74f 73f
5:06  -  1 mph 1013.2mb 74f 73f
5:00 1
mph
1013.1mb 74f 73f
4:54 1 2 mph 1013mb 74f 73f
4:48 1 3 mph 1012.9mb 74f 73f
4:42 1 3 mph 1012.8mb 74f 73f
4:36 2 3 mph 1012.7mb 74f 73f
4:30 3 5 mph 1012.6mb 74f 73f
4:24 3 5 mph 1012.6mb 74f 73f
4:18 3 5 mph 1012.6mb 74f 73f
4:12 5
mph
1012.6mb 74f 73f
4:06 3 6 mph 1012.6mb 74f 73f
4:00 5 6 mph 1012.6mb 74f 73f
3:54 3 7 mph 1012.7mb 74f 73f
3:48 6 7 mph 1012.8mb 74f 73f
3:42 5 6 mph 1012.8mb 74f 73f
3:36 5 6 mph 1012.8mb 75f 73f
3:30 3 6 mph 1012.8mb 75f 74f
3:24 5 6 mph 1012.8mb 75f 74f
3:18 3 6 mph 1012.9mb 75f 74f
3:12 6 7 mph 1012.8mb 75f 74f
3:06 6 7 mph 1012.8mb 75f 74f
3:00 5 7 mph 1012.8mb - -
2:54 6 7 mph 1012.7mb 75f 74f
2:48 6 7 mph 1012.7mb 75f 75f
2:42 6 8 mph 1012.7mb 74f 75f
2:36 6 7 mph 1012.7mb 74f 75f
2:30 3 7 mph 1012.7mb 74f 75f
2:24 6 8 mph 1012.8mb 74f 75f
2:18 5 6 mph - - -
2:12 5 6 mph 1012.8mb 75f 75f
2:06 5 7 mph 1012.8mb 75f 75f
2:00 6 7 mph 1012.6mb 75f 75f
1:54 3 6 mph 1012.6mb 75f 75f
1:48 3 6 mph 1012.6mb 75f 75f
1:42 3 6 mph 1012.6mb 75f 76f
1:36 5 6 mph 1012.6mb 75f 76f
1:30 5 6 mph 1012.8mb 75f 76f
1:24 5 6 mph 1012.7mb 75f 76f
1:18 5
mph
1012.7mb 75f 76f
1:12 3 5 mph 1012.7mb 75f 76f
1:06 2 3 mph 1012.7mb 75f 77f
1:00 2 5 mph 1012.7mb 75f 77f
12:54 5 6 mph 1012.7mb 75f 77f
12:48 3 6 mph 1012.7mb 75f 77f
12:42 3 7 mph 1012.6mb 74f 78f
12:36 5 6 mph 1012.6mb 74f 78f
12:30 5 7 mph 1012.6mb 74f 78f
12:24 6 8 mph 1012.6mb 74f 78f
12:18 6 7 mph 1012.5mb 74f 78f
12:12 5 7 mph 1012.5mb 74f 78f
12:06 6 8 mph 1012.4mb 74f 78f
12:00 6 8 mph 1012.3mb 74f 79f
mar 07/26 11:54 6 8 mph 1012.4mb 74f 79f
11:48 6 8 mph 1012.4mb 74f 79f
11:42 6 8 mph 1012.5mb 74f 79f
11:36 6 9 mph 1012.4mb 74f 79f
11:30 6 7 mph 1012.4mb 74f 79f
11:24 6 10 mph 1012.3mb 74f 80f
11:18 7 11 mph 1012.2mb 74f -
11:12 6 9 mph 1012.1mb 74f -
11:06 7 10 mph 1012mb 74f -
11:00 7 11 mph - 74f -
10:54 8 10 mph - 74f -
10:48 8 10 mph 1011.8mb 74f -
10:42 7 11 mph 1011.8mb 74f -
10:36 9 13 mph 1011.8mb 74f -
10:30 8 13 mph - 74f 81f
10:24 8 11 mph - 74f 81f
10:18 8 11 mph 1011.9mb 74f 81f
10:12 8 11 mph 1011.9mb 74f 81f
10:06 7 10 mph 1011.8mb 74f 81f
10:00  -  mph - 74f 82f
9:54  -  mph - 74f 82f
9:48 7 10 mph - - -
9:42 7 9 mph - - -
9:36 6 8 mph - - -
9:30 6 8 mph - 74f -
9:24 6 10 mph - 73f -
9:18 7 9 mph - 73f 82f
9:12 6 10 mph - 73f 82f
9:06 7 9 mph - 73f 83f
9:00  -  mph - 73f 83f
8:54  -  mph - 73f 83f
8:48 6 8 mph 1010.5mb - -
8:42 7 9 mph 1010.4mb - -
8:36 6 9 mph 1010.4mb - -
8:30 6 9 mph - 73f 84f
8:24 6 9 mph - 73f 84f
8:18  -  mph - 74f 85f
8:12  -  mph - 74f 85f
8:06  -  mph - 73f 85f
8:00  -  mph - 73f -
7:54  -  mph - 74f -
7:48  -  mph - 74f -
7:42  -  mph - 74f -
7:36  -  mph - 74f -
7:30 6 9 mph - 74f 86f
7:24 7 10 mph - 74f 87f
7:18 8 9 mph 1009.7mb 73f -
7:12 8 11 mph 1009.7mb 73f -
7:06 7 10 mph 1009.6mb 73f -
7:00  -  mph 1009.5mb 73f -
6:54  -  mph 1009.5mb 73f -
6:48  -  mph 1009.5mb 73f -
6:42  -  mph 1009.4mb 73f -
6:36  -  mph 1009.3mb 73f -
6:30 8 14 mph 1009.3mb 73f 89f
6:24 10 18 mph 1009.3mb 73f 89f
6:18 11 20 mph 1009.3mb 73f -
6:12 9 13 mph 1009.3mb 73f -
6:06 9 13 mph 1009.4mb 73f -
6:00  -  mph - 73f 89f
5:54  -  mph - 72f 89f
5:48 13 16 mph - 72f -
5:42 13 17 mph - 72f -
5:36 13 17 mph - 72f -
5:30 11 17 mph 1009.4mb 72f 90f
5:24 10 14 mph 1009.4mb 72f 90f
5:18 8 11 mph 1009.3mb 72f 89f
4:54 10 16 mph 1009.2mb 72f 89f
4:48 11 18 mph 1009.2mb 72f 89f
4:42 10 16 mph 1009.1mb 71f 89f
4:36 10 14 mph 1009.2mb 72f 90f
4:30 13 16 mph 1009.1mb 72f 89f
4:24 14 18 mph 1009.1mb 72f 89f
4:18 13 18 mph 1009.1mb 72f 89f
4:12 11 18 mph 1009.2mb 72f 89f
4:06 9 14 mph 1009.2mb 72f 89f
4:00 8 14 mph 1009.2mb 72f 89f
3:54 10 16 mph 1009.2mb 72f 90f
3:48 13 18 mph 1009.1mb 72f 89f
3:42 10 16 mph 1009.1mb 72f 89f
3:36 7 11 mph 1009.1mb 72f 88f
3:30 13 17 mph 1009.2mb 72f 88f
3:24 8 16 mph 1009.2mb 73f 89f
3:18 9 14 mph 1009.1mb 73f 89f
3:12 7 13 mph 1009.2mb 73f 88f
3:06 8 16 mph 1009.3mb 73f 89f
3:00 9 15 mph 1009.3mb 73f 88f
2:54 7 16 mph 1009.3mb 73f 89f
2:48 7 20 mph 1009.3mb 73f 89f
2:42 13 16 mph 1009.3mb 73f 88f
2:36 8 15 mph 1009.2mb 73f 88f
2:30 11 17 mph 1009.3mb 73f 88f
2:24 10 17 mph 1009.3mb 73f 89f
2:18 11 18 mph 1009.3mb 73f 89f
2:12 10 15 mph 1009.3mb 73f 87f
2:06 11 15 mph 1009.4mb 73f 88f
2:00 10 15 mph 1009.4mb 73f 85f
1:54 9 15 mph 1009.4mb 73f 87f
1:48 8 14 mph 1009.5mb 74f 87f
1:42 10 15 mph 1009.5mb 74f 86f
1:36 9 16 mph 1009.5mb 74f 87f
1:30 8 18 mph 1009.6mb 74f 87f
1:24 10 14 mph 1009.7mb 74f 87f
1:18 8 15 mph 1009.7mb 74f 87f
1:12 9 18 mph 1009.8mb 74f 86f
1:06 11 18 mph 1009.8mb 75f 87f
1:00 9 17 mph 1009.8mb 75f 87f
12:54 10 16 mph 1009.7mb 75f 87f
12:48 11 16 mph 1009.7mb 75f 86f
12:42 9 16 mph 1009.8mb 75f 87f
12:36 9 18 mph 1009.9mb 75f 86f
12:30 10 18 mph 1009.9mb 75f 86f
12:24 9 18 mph 1009.9mb 75f 87f
12:18 15 20 mph 1009.9mb 75f 86f
12:12 9 15 mph 1010mb 75f 86f
12:06 9 14 mph 1010mb 75f 86f
12:00 8 11 mph 1010mb 75f 85f
11:54 8 16 mph 1010.2mb 75f 84f
11:48 10 15 mph 1010.2mb 75f 85f
11:42 10 14 mph 1010.2mb 75f 85f
11:36 9 15 mph 1010.2mb 75f 85f
11:30 11 16 mph 1010.1mb 75f 85f
11:24 11 16 mph 1010.2mb 75f 85f
11:18 11 16 mph 1010.2mb 75f 85f
11:12 9 15 mph 1010.3mb 75f 85f
11:06 7 13 mph 1010.3mb 75f 85f
11:00 9 15 mph 1010.3mb 74f 84f
10:54 10 18 mph 1010.4mb 74f 84f
10:48 11 20 mph 1010.4mb 74f 84f
10:42 16 23 mph 1010.4mb 74f 84f
10:36 8 11 mph 1010.5mb 74f 84f
10:30 10 14 mph 1010.4mb 74f 84f
10:24 9 13 mph 1010.4mb 74f 83f
10:18 8 14 mph 1010.4mb 74f 83f
10:12 10 15 mph 1010.4mb 74f 83f
10:06 8 11 mph 1010.4mb 74f 83f
10:00 5 13 mph 1010.5mb 74f 83f
9:54 7 13 mph 1010.5mb 74f 83f
9:48 10 13 mph 1010.6mb 74f 83f
9:42 6 9 mph 1010.6mb 74f 82f
9:36 7 10 mph 1010.6mb 74f 81f
9:30 7 9 mph 1010.7mb 74f 80f
9:24 9 11 mph 1010.6mb 74f 80f
9:18 6 8 mph 1010.6mb 74f 80f
9:12 6 8 mph 1010.7mb 74f 81f
9:06 7 9 mph 1010.7mb 74f 79f
9:00 6 9 mph 1010.7mb 73f 81f
8:54 5 9 mph 1010.8mb 73f 79f
8:48 5 9 mph 1010.8mb 73f 80f
8:42 6 9 mph 1010.9mb 73f 80f
8:36 7 9 mph 1010.9mb 73f 80f
8:30 8 10 mph 1010.9mb 73f 79f
8:24 7 10 mph 1010.9mb 73f 79f
8:18 6 11 mph 1010.9mb 73f 78f
8:12 6 9 mph 1010.9mb 73f 79f
8:06 6 9 mph 1010.9mb 73f 78f
8:00 6 9 mph 1010.8mb 73f 78f
7:54 6 11 mph 1010.8mb 73f 78f
7:48 6 11 mph 1010.8mb 73f 78f
7:42 7 10 mph 1010.8mb 73f 77f
7:36 8 11 mph 1010.8mb 73f 77f
7:30 7 14 mph 1010.8mb 73f 77f
7:24 8 14 mph 1010.7mb 73f 77f
7:18 8 10 mph 1010.6mb 73f 76f
7:12 7 11 mph 1010.6mb 73f 76f
7:06 6 10 mph 1010.7mb 73f 76f
7:00 7 9 mph 1010.6mb 73f 76f
6:54 7 8 mph 1010.7mb 73f 76f
6:48 6 10 mph 1010.6mb 73f 75f
6:42 7 11 mph 1010.6mb 73f 75f
6:36 8 11 mph 1010.5mb 73f 75f
6:30 7 10 mph 1010.4mb 73f 75f
6:24 8 9 mph 1010.4mb 73f 74f
6:18 6 8 mph 1010.3mb 73f 74f
6:12 6 8 mph 1010.3mb 73f 73f
6:06 6 9 mph 1010.4mb 73f 73f
6:00 6 8 mph 1010.3mb 73f 73f
5:54 6 9 mph 1010.3mb 73f 73f
5:48 6 9 mph 1010.2mb 73f 73f
5:42 7 9 mph 1010.1mb 73f 73f
5:36 6 10 mph 1010.1mb 73f 73f
5:30 6 8 mph 1010mb 73f 73f
5:24 3 6 mph 1010mb 73f 73f
5:18 5 7 mph 1009.9mb 73f 73f
5:12 5 6 mph 1009.9mb 73f 73f
5:06 5 6 mph 1009.9mb 73f 73f
5:00 3 5 mph 1009.9mb 73f 73f
4:54 2 5 mph 1009.8mb 73f 73f
4:48 2 3 mph 1009.8mb 73f 73f
4:42 1 3 mph 1009.8mb 73f 73f
4:36 1 6 mph 1009.7mb 73f 73f
4:30 5 8 mph 1009.6mb 73f 73f
4:24 5 6 mph 1009.5mb 73f 73f
4:18 3 6 mph 1009.5mb 73f 73f
4:12 5 7 mph 1009.4mb 73f 73f
4:06 6 10 mph 1009.3mb 73f 73f
4:00 6 10 mph 1009.2mb 73f 73f
3:54 6 7 mph 1009.2mb 73f 73f
3:48 6 7 mph 1009.2mb 73f 73f
3:42 6 9 mph 1009.3mb 73f 73f
3:36 5 8 mph 1009.3mb 73f 73f
3:30 5 8 mph 1009.2mb 73f 73f
3:24 5 8 mph 1009.2mb 73f 73f
3:18 5 8 mph 1009.3mb 73f 74f
3:12 5 7 mph 1009.1mb 74f 74f
3:06 5 7 mph 1009.2mb 74f 74f
3:00 3 7 mph 1009.1mb 74f 74f
2:54 6 8 mph 1009.1mb 74f 74f
2:48 6 7 mph 1009.1mb 74f 74f
2:42 6 7 mph 1009mb 74f 74f
2:36 5 6 mph 1009.1mb 74f 74f
2:30 3 7 mph 1009.2mb 74f 74f
2:24 6 7 mph 1009.1mb 74f 74f
2:18 6 8 mph 1009mb 74f 74f
2:12 8 9 mph 1009mb 74f 74f
2:06 7 8 mph 1009mb 74f 74f
2:00 6 7 mph 1009mb 74f 74f
1:54 5 6 mph 1009.1mb 74f 74f
1:48 3 7 mph 1009.1mb 74f -
1:42 3 5 mph 1009.2mb 74f -
1:36 2 3 mph 1009.2mb 75f -
1:30 2 5 mph 1009.3mb 75f 74f
1:24 5 6 mph 1009.3mb 75f 74f
1:18 5 6 mph 1009.4mb 75f 75f
1:12 3 6 mph 1009.5mb 75f 75f
1:06 5 7 mph 1009.4mb 75f 75f
1:00 5 8 mph 1009.4mb 75f 75f
12:54 6 7 mph 1009.4mb 76f 75f
12:48 3 9 mph 1009.4mb 76f 75f
12:42 8 11 mph 1009.5mb 76f 75f
12:36 8 11 mph 1009.5mb 76f 75f
12:30 9 11 mph 1009.5mb 76f 75f
12:24 10 11 mph 1009.6mb 76f 75f
12:18 9 10 mph 1009.6mb 76f 75f
12:12 9 10 mph 1009.6mb 76f 75f
12:06 10 13 mph 1009.7mb 75f 76f
12:00 10 13 mph 1009.7mb 75f 76f
lun 07/25 11:54 9 11 mph 1009.9mb 75f 76f
11:48 9 11 mph 1009.8mb 75f 76f
11:42 9 10 mph 1009.7mb 75f 76f
11:36 7 10 mph 1009.6mb 75f 76f
11:30 8 9 mph 1009.7mb 75f 76f
11:24 7 10 mph 1009.9mb 75f 76f
11:18 6 10 mph 1009.6mb 75f 77f
11:12 5 8 mph 1009.5mb 76f 77f
11:06 7 10 mph 1009.5mb 76f 77f
11:00 5 7 mph - 76f 77f
10:54 5 8 mph - 76f 77f
10:48 3 6 mph 1009mb - -
10:42 5 8 mph 1009.1mb - -
10:36 2 5 mph 1009.1mb - -
10:30 1 2 mph - 76f 76f
10:24 3 6 mph - 76f 76f
10:18 6 9 mph - 76f 76f
10:12 8 10 mph - 76f 76f
10:06 7 10 mph - 76f 76f
10:00 9 10 mph - 76f 76f
9:54 10 14 mph - 76f 76f
9:48 10 15 mph 1009mb 76f -
9:42 14 16 mph 1009.2mb 76f -
9:36 14 17 mph 1009.3mb 76f -
9:30 14 18 mph - 76f -
9:24 14 18 mph - 76f -
9:18 15 16 mph - 76f 76f
9:12 14 16 mph - 76f 76f
9:06 15 16 mph - 76f 76f
9:00 15 20 mph - 76f 76f
8:54 15 18 mph - 77f 76f
8:48 16 17 mph - - -
8:42 15 21 mph - - -
8:36 16 20 mph - - -
8:30 17 20 mph - 77f 76f
8:24 16 20 mph - 77f 76f
8:18 16 20 mph - 77f -
8:12 16 18 mph - 77f -
8:06 13 17 mph - 77f -
8:00  -  mph - 77f 76f
7:54  -  mph - 77f 76f
7:48 15 17 mph 1010.6mb - -
7:42 14 17 mph 1010.5mb - -
7:36 14 16 mph 1010.6mb - -
7:30  -  mph - 77f -
7:24  -  mph - 77f -
7:18 8 11 mph 1010.2mb 77f -
7:12 9 13 mph 1010.1mb 78f -
7:06 13 15 mph 1010.1mb 78f -
7:00  -  mph - 78f 74f
6:54  -  mph - 78f 74f
6:48 14 15 mph 1009.7mb 78f -
6:42 14 16 mph 1009.7mb 78f -
6:36 13 15 mph 1009.7mb 78f -
6:30 16 17 mph 1009.6mb 78f -
6:24 16 20 mph 1009.7mb 78f -
6:18 15 17 mph - 78f 76f
6:12 16 20 mph - 78f 76f
6:06 15 17 mph - 78f 76f
6:00  -  mph - 78f -
5:54  -  mph - 77f -
5:48  -  mph - 77f 76f
5:42  -  mph - 77f 76f
5:36  -  mph - 77f 75f
5:30 15 18 mph 1010mb 77f 75f
5:24 16 18 mph 1010.1mb 77f 75f
5:18 15 17 mph 1010.3mb 77f 75f
5:12 17 18 mph 1010.2mb 76f 75f
5:06 15 17 mph 1010.3mb 76f 75f
5:00 14 16 mph 1010.4mb 76f 77f
4:54 14 15 mph 1010.5mb 76f 77f
4:48 13 15 mph 1010.7mb 76f 77f
4:42 14 15 mph 1011mb 76f 77f
4:36 14 15 mph 1011.1mb 76f 78f
4:30 15 17 mph 1011mb 75f 77f
4:24 15 18 mph 1011mb 75f 77f
4:18 14 16 mph 1011.1mb 74f 77f
4:12 14 16 mph 1011.2mb 74f 78f
4:06 14 16 mph 1011.2mb 74f 78f
4:00 15 16 mph 1011.2mb 74f 79f
3:54 14 17 mph 1011.3mb 74f 79f
3:48 16 18 mph 1011.3mb 74f 79f
3:42 16 18 mph 1011.4mb 74f 80f
3:36 15 18 mph 1011.3mb 74f 80f
3:30 18 21 mph 1011.3mb 73f 80f
3:24 18 21 mph 1011.5mb 73f 80f
3:18 15 17 mph 1011.5mb 73f 80f
3:12 16 18 mph 1011.6mb 73f 78f
3:06 18 21 mph 1011.6mb 73f 78f
3:00 16 18 mph 1011.7mb 72f 78f
2:54 15 18 mph 1011.9mb 72f 78f
2:48 17 18 mph 1011.9mb 72f 77f
2:42 16 20 mph 1012mb 73f 77f
2:36 20 21 mph 1012.1mb 73f 77f
2:30 18 21 mph 1012.2mb 73f 77f
2:24 15 17 mph 1012.2mb 73f 79f
2:18 17 21 mph 1012.2mb 73f 77f
2:12 18 21 mph 1012.2mb 73f 78f
2:06 16 20 mph 1012.4mb 73f 77f
2:00 17 22 mph 1012.4mb 73f 77f
1:54 20 23 mph 1012.3mb 73f 77f
1:48 17 21 mph 1012.3mb 74f 77f
1:42 15 20 mph 1012.3mb 74f 77f
1:36 13 17 mph 1012.4mb 74f 77f
1:30 15 21 mph 1012.4mb 74f 84f
1:24 18 21 mph 1012.4mb 74f 84f
1:18 17 21 mph 1012.4mb 74f 84f
1:12 16 21 mph 1012.4mb 74f 84f
1:06 16 22 mph 1012.4mb 75f 84f
1:00 18 22 mph 1012.4mb 75f 84f
12:54 18 20 mph 1012.4mb 75f 84f
12:48 14 17 mph 1012.5mb 75f 84f
12:42 13 16 mph 1012.7mb 75f 84f
12:36 14 17 mph 1012.7mb 76f 84f
12:30 15 18 mph 1012.7mb 76f 84f
12:24 13 15 mph 1012.8mb 76f 84f
12:18 13 17 mph 1012.9mb 76f 83f
12:12 13 14 mph 1012.8mb 76f 83f
12:06 11 15 mph 1012.8mb 76f 85f
12:00 14 15 mph 1012.9mb 76f 84f
11:54 10 14 mph 1013mb 76f 83f
11:48 13 15 mph 1013.1mb 76f 83f
11:42 10 13 mph 1013.1mb 76f 83f
11:36 11 14 mph 1013.1mb 75f 83f
11:30 10 13 mph 1013.1mb 75f 83f
11:24 9 11 mph 1013.2mb 75f 82f
11:18 9 13 mph 1013.2mb 75f 82f
11:12 9 11 mph 1013.1mb 75f 82f
11:06 9 14 mph 1013.3mb 75f 82f
11:00 13 15 mph 1013.3mb 75f 82f
10:54 9 14 mph 1013.3mb 75f 81f
10:48 14 17 mph 1013.3mb 75f 82f
10:42 13 18 mph 1013.3mb 75f 81f
10:36 14 20 mph 1013.3mb 75f 81f
10:30 15 18 mph 1013.4mb 75f 81f
10:24 11 15 mph 1013.4mb 75f 81f
10:18 11 17 mph 1013.5mb 75f 80f
10:12 15 20 mph 1013.4mb 75f 81f
10:06 11 14 mph 1013.4mb 75f 80f
10:00 11 17 mph 1013.3mb 75f 80f
9:54 14 17 mph 1013.4mb 75f 80f
9:48 13 16 mph 1013.4mb 75f 80f
9:42 11 14 mph 1013.5mb 75f 76f
9:36 13 14 mph 1013.6mb 75f 76f
9:30 11 13 mph 1013.7mb 75f 75f
9:24 13 14 mph 1013.8mb 75f 75f
9:18 13 14 mph 1013.8mb 75f 74f
9:12 13
mph
1013.7mb 75f 74f
9:06 10 13 mph 1013.8mb 75f 74f
9:00 11
mph
1013.9mb 75f 74f
8:54 11 13 mph 1014mb 75f 74f
8:48 11 13 mph 1014.1mb 75f 74f
8:42 10 11 mph 1014.1mb 75f 74f
8:36 10 11 mph 1014.1mb 75f 74f
8:30 10 11 mph 1014.2mb 75f 73f
8:24 10 11 mph 1014.2mb 75f 73f
8:18 10 11 mph 1014.3mb 75f 73f
8:12 9 10 mph 1014.4mb 75f 73f
8:06 8
mph
1014.5mb 75f 73f
8:00 7 8 mph 1014.6mb 75f 73f
7:54 8 9 mph 1014.6mb 75f 73f
7:48 7 8 mph 1014.7mb 74f 73f
7:42 8
mph
1014.6mb 74f 73f
7:36 7 8 mph 1014.6mb 74f 73f
7:30 7 8 mph 1014.6mb 74f 72f
7:24 7 8 mph 1014.6mb 74f 72f
7:18 7 8 mph 1014.7mb 74f 72f
7:12 7
mph
1014.7mb 74f 72f
7:06 6 7 mph 1014.6mb 73f 72f
7:00 6 7 mph 1014.6mb 73f 73f
6:54 6 7 mph 1014.7mb 73f 73f
6:48 6 8 mph 1014.6mb 73f 73f
6:42 8
mph
1014.6mb 73f 72f
6:36 7
mph
1014.7mb 73f 72f
6:30 6 7 mph 1014.7mb 73f 73f
6:24 7 8 mph 1014.6mb 73f 73f
6:18 7
mph
1014.6mb 73f 73f
6:12 5 6 mph 1014.4mb 73f 73f
6:06 6 7 mph 1014.5mb 74f 73f